sensor_id;sensor_type;location;lat;lon;timestamp;temperature;humidity
22167;DHT22;11249;52.468;13.776;2022-10-16T00:01:59;14.30;99.90
22167;DHT22;11249;52.468;13.776;2022-10-16T00:04:26;14.20;99.90
22167;DHT22;11249;52.468;13.776;2022-10-16T00:06:53;14.30;99.90
22167;DHT22;11249;52.468;13.776;2022-10-16T00:09:27;14.30;99.90
22167;DHT22;11249;52.468;13.776;2022-10-16T00:11:53;14.30;99.90
22167;DHT22;11249;52.468;13.776;2022-10-16T00:14:27;14.30;99.90
22167;DHT22;11249;52.468;13.776;2022-10-16T00:17:00;14.30;99.90
22167;DHT22;11249;52.468;13.776;2022-10-16T00:19:26;14.30;99.90
22167;DHT22;11249;52.468;13.776;2022-10-16T00:22:06;14.30;99.90
22167;DHT22;11249;52.468;13.776;2022-10-16T00:24:33;14.40;99.90
22167;DHT22;11249;52.468;13.776;2022-10-16T00:27:00;14.40;99.90
22167;DHT22;11249;52.468;13.776;2022-10-16T00:29:32;14.40;99.90
22167;DHT22;11249;52.468;13.776;2022-10-16T00:31:59;14.40;99.90
22167;DHT22;11249;52.468;13.776;2022-10-16T00:34:32;14.40;99.90
22167;DHT22;11249;52.468;13.776;2022-10-16T00:36:59;14.40;99.90
22167;DHT22;11249;52.468;13.776;2022-10-16T00:39:33;14.40;99.90
22167;DHT22;11249;52.468;13.776;2022-10-16T00:41:59;14.40;99.90
22167;DHT22;11249;52.468;13.776;2022-10-16T00:50:09;14.40;99.90
22167;DHT22;11249;52.468;13.776;2022-10-16T00:52:46;14.40;99.90
22167;DHT22;11249;52.468;13.776;2022-10-16T00:55:14;14.40;99.90
22167;DHT22;11249;52.468;13.776;2022-10-16T00:57:47;14.40;99.90
22167;DHT22;11249;52.468;13.776;2022-10-16T01:00:24;14.50;99.90
22167;DHT22;11249;52.468;13.776;2022-10-16T01:03:00;14.50;99.90
22167;DHT22;11249;52.468;13.776;2022-10-16T01:05:35;14.50;99.90
22167;DHT22;11249;52.468;13.776;2022-10-16T01:08:15;14.40;99.90
22167;DHT22;11249;52.468;13.776;2022-10-16T01:10:59;14.50;99.90
22167;DHT22;11249;52.468;13.776;2022-10-16T01:13:40;14.50;99.90
22167;DHT22;11249;52.468;13.776;2022-10-16T01:16:15;14.40;99.90
22167;DHT22;11249;52.468;13.776;2022-10-16T01:19:26;14.50;99.90
22167;DHT22;11249;52.468;13.776;2022-10-16T01:22:13;14.50;99.90
22167;DHT22;11249;52.468;13.776;2022-10-16T01:24:49;14.50;99.90
22167;DHT22;11249;52.468;13.776;2022-10-16T01:27:25;14.50;99.90
22167;DHT22;11249;52.468;13.776;2022-10-16T01:30:07;14.50;99.90
22167;DHT22;11249;52.468;13.776;2022-10-16T01:32:45;14.50;99.90
22167;DHT22;11249;52.468;13.776;2022-10-16T01:35:26;14.50;99.90
22167;DHT22;11249;52.468;13.776;2022-10-16T01:38:05;14.50;99.90
22167;DHT22;11249;52.468;13.776;2022-10-16T01:40:42;14.40;99.90
22167;DHT22;11249;52.468;13.776;2022-10-16T01:43:23;14.40;99.90
22167;DHT22;11249;52.468;13.776;2022-10-16T01:45:59;14.50;99.90
22167;DHT22;11249;52.468;13.776;2022-10-16T01:48:26;14.40;99.90
22167;DHT22;11249;52.468;13.776;2022-10-16T01:51:04;14.40;99.90
22167;DHT22;11249;52.468;13.776;2022-10-16T01:53:32;14.40;99.90
22167;DHT22;11249;52.468;13.776;2022-10-16T01:56:09;14.30;99.90
22167;DHT22;11249;52.468;13.776;2022-10-16T01:58:37;14.30;99.90
22167;DHT22;11249;52.468;13.776;2022-10-16T02:01:15;14.30;99.90
22167;DHT22;11249;52.468;13.776;2022-10-16T02:03:44;14.30;99.90
22167;DHT22;11249;52.468;13.776;2022-10-16T02:06:12;14.30;99.90
22167;DHT22;11249;52.468;13.776;2022-10-16T02:08:46;14.30;99.90
22167;DHT22;11249;52.468;13.776;2022-10-16T02:11:13;14.30;99.90
22167;DHT22;11249;52.468;13.776;2022-10-16T02:13:48;14.40;99.90
22167;DHT22;11249;52.468;13.776;2022-10-16T02:16:17;14.30;99.90
22167;DHT22;11249;52.468;13.776;2022-10-16T02:18:44;14.30;99.90
22167;DHT22;11249;52.468;13.776;2022-10-16T02:21:26;14.30;99.90
22167;DHT22;11249;52.468;13.776;2022-10-16T02:26:41;14.30;99.90
22167;DHT22;11249;52.468;13.776;2022-10-16T02:29:21;14.30;99.90
22167;DHT22;11249;52.468;13.776;2022-10-16T02:31:52;14.40;99.90
22167;DHT22;11249;52.468;13.776;2022-10-16T02:34:28;14.40;99.90
22167;DHT22;11249;52.468;13.776;2022-10-16T02:37:04;14.40;99.90
22167;DHT22;11249;52.468;13.776;2022-10-16T02:39:31;14.40;99.90
22167;DHT22;11249;52.468;13.776;2022-10-16T02:42:13;14.40;99.90
22167;DHT22;11249;52.468;13.776;2022-10-16T02:44:40;14.40;99.90
22167;DHT22;11249;52.468;13.776;2022-10-16T02:47:13;14.30;99.90
22167;DHT22;11249;52.468;13.776;2022-10-16T02:49:39;14.30;99.90
22167;DHT22;11249;52.468;13.776;2022-10-16T02:52:06;14.40;99.90
22167;DHT22;11249;52.468;13.776;2022-10-16T02:54:39;14.30;99.90
22167;DHT22;11249;52.468;13.776;2022-10-16T02:57:05;14.30;99.90
22167;DHT22;11249;52.468;13.776;2022-10-16T02:59:39;14.20;99.90
22167;DHT22;11249;52.468;13.776;2022-10-16T03:02:05;14.20;99.90
22167;DHT22;11249;52.468;13.776;2022-10-16T03:04:38;14.30;99.90
22167;DHT22;11249;52.468;13.776;2022-10-16T03:07:05;14.20;99.90
22167;DHT22;11249;52.468;13.776;2022-10-16T03:09:38;14.20;99.90
22167;DHT22;11249;52.468;13.776;2022-10-16T03:12:05;14.20;99.90
22167;DHT22;11249;52.468;13.776;2022-10-16T03:14:38;14.30;99.90
22167;DHT22;11249;52.468;13.776;2022-10-16T03:17:06;14.30;99.90
22167;DHT22;11249;52.468;13.776;2022-10-16T03:19:32;14.20;99.90
22167;DHT22;11249;52.468;13.776;2022-10-16T03:22:05;14.20;99.90
22167;DHT22;11249;52.468;13.776;2022-10-16T03:24:39;14.30;99.90
22167;DHT22;11249;52.468;13.776;2022-10-16T03:27:05;14.40;99.90
22167;DHT22;11249;52.468;13.776;2022-10-16T03:29:32;14.30;99.90
22167;DHT22;11249;52.468;13.776;2022-10-16T03:32:05;14.30;99.90
22167;DHT22;11249;52.468;13.776;2022-10-16T03:34:38;14.30;99.90
22167;DHT22;11249;52.468;13.776;2022-10-16T03:37:05;14.30;99.90
22167;DHT22;11249;52.468;13.776;2022-10-16T03:39:39;14.30;99.90
22167;DHT22;11249;52.468;13.776;2022-10-16T03:42:05;14.30;99.90
22167;DHT22;11249;52.468;13.776;2022-10-16T03:44:39;14.30;99.90
22167;DHT22;11249;52.468;13.776;2022-10-16T03:47:05;14.20;99.90
22167;DHT22;11249;52.468;13.776;2022-10-16T03:49:32;14.30;99.90
22167;DHT22;11249;52.468;13.776;2022-10-16T03:52:04;14.30;99.90
22167;DHT22;11249;52.468;13.776;2022-10-16T03:54:31;14.20;99.90
22167;DHT22;11249;52.468;13.776;2022-10-16T03:57:05;14.20;99.90
22167;DHT22;11249;52.468;13.776;2022-10-16T03:59:31;14.10;99.90
22167;DHT22;11249;52.468;13.776;2022-10-16T04:01:58;14.20;99.90
22167;DHT22;11249;52.468;13.776;2022-10-16T04:04:30;14.10;99.90
22167;DHT22;11249;52.468;13.776;2022-10-16T04:07:04;14.10;99.90
22167;DHT22;11249;52.468;13.776;2022-10-16T04:09:31;14.10;99.90
22167;DHT22;11249;52.468;13.776;2022-10-16T04:11:57;14.10;99.90
22167;DHT22;11249;52.468;13.776;2022-10-16T04:14:31;14.00;99.90
22167;DHT22;11249;52.468;13.776;2022-10-16T04:16:57;14.00;99.90
22167;DHT22;11249;52.468;13.776;2022-10-16T04:19:24;14.10;99.90
22167;DHT22;11249;52.468;13.776;2022-10-16T04:21:57;14.00;99.90
22167;DHT22;11249;52.468;13.776;2022-10-16T04:24:30;14.00;99.90
22167;DHT22;11249;52.468;13.776;2022-10-16T04:26:56;14.10;99.90
22167;DHT22;11249;52.468;13.776;2022-10-16T04:29:29;14.10;99.90
22167;DHT22;11249;52.468;13.776;2022-10-16T04:32:03;14.00;99.90
22167;DHT22;11249;52.468;13.776;2022-10-16T04:34:29;14.10;99.90
22167;DHT22;11249;52.468;13.776;2022-10-16T04:37:03;14.10;99.90
22167;DHT22;11249;52.468;13.776;2022-10-16T04:39:29;14.10;99.90
22167;DHT22;11249;52.468;13.776;2022-10-16T04:42:03;14.10;99.90
22167;DHT22;11249;52.468;13.776;2022-10-16T04:44:29;14.10;99.90
22167;DHT22;11249;52.468;13.776;2022-10-16T04:46:56;14.10;99.90
22167;DHT22;11249;52.468;13.776;2022-10-16T04:49:28;14.00;99.90
22167;DHT22;11249;52.468;13.776;2022-10-16T04:51:55;14.10;99.90
22167;DHT22;11249;52.468;13.776;2022-10-16T04:54:29;14.00;99.90
22167;DHT22;11249;52.468;13.776;2022-10-16T04:56:55;14.00;99.90
22167;DHT22;11249;52.468;13.776;2022-10-16T04:59:23;14.00;99.90
22167;DHT22;11249;52.468;13.776;2022-10-16T05:01:56;14.00;99.90
22167;DHT22;11249;52.468;13.776;2022-10-16T05:04:28;13.90;99.90
22167;DHT22;11249;52.468;13.776;2022-10-16T05:06:55;13.90;99.90
22167;DHT22;11249;52.468;13.776;2022-10-16T05:09:22;13.90;99.90
22167;DHT22;11249;52.468;13.776;2022-10-16T05:11:55;13.90;99.90
22167;DHT22;11249;52.468;13.776;2022-10-16T05:14:21;13.90;99.90
22167;DHT22;11249;52.468;13.776;2022-10-16T05:16:48;13.90;99.90
22167;DHT22;11249;52.468;13.776;2022-10-16T05:19:28;13.90;99.90
22167;DHT22;11249;52.468;13.776;2022-10-16T05:22:02;13.80;99.90
22167;DHT22;11249;52.468;13.776;2022-10-16T05:24:36;13.80;99.90
22167;DHT22;11249;52.468;13.776;2022-10-16T05:27:09;13.80;99.90
22167;DHT22;11249;52.468;13.776;2022-10-16T05:29:37;13.70;99.90
22167;DHT22;11249;52.468;13.776;2022-10-16T05:32:10;13.70;99.90
22167;DHT22;11249;52.468;13.776;2022-10-16T05:34:36;13.60;99.90
22167;DHT22;11249;52.468;13.776;2022-10-16T05:37:10;13.60;99.90
22167;DHT22;11249;52.468;13.776;2022-10-16T05:39:38;13.60;99.90
22167;DHT22;11249;52.468;13.776;2022-10-16T05:42:05;13.60;99.90
22167;DHT22;11249;52.468;13.776;2022-10-16T05:44:39;13.60;99.90
22167;DHT22;11249;52.468;13.776;2022-10-16T05:47:12;13.60;99.90
22167;DHT22;11249;52.468;13.776;2022-10-16T05:49:40;13.60;99.90
22167;DHT22;11249;52.468;13.776;2022-10-16T05:52:07;13.60;99.90
22167;DHT22;11249;52.468;13.776;2022-10-16T05:54:40;13.60;99.90
22167;DHT22;11249;52.468;13.776;2022-10-16T05:57:06;13.60;99.90
22167;DHT22;11249;52.468;13.776;2022-10-16T05:59:40;13.60;99.90
22167;DHT22;11249;52.468;13.776;2022-10-16T06:02:11;13.60;99.90
22167;DHT22;11249;52.468;13.776;2022-10-16T06:04:38;13.60;99.90
22167;DHT22;11249;52.468;13.776;2022-10-16T06:07:11;13.60;99.90
22167;DHT22;11249;52.468;13.776;2022-10-16T06:09:48;13.60;99.90
22167;DHT22;11249;52.468;13.776;2022-10-16T06:12:22;13.60;99.90
22167;DHT22;11249;52.468;13.776;2022-10-16T06:14:48;13.60;99.90
22167;DHT22;11249;52.468;13.776;2022-10-16T06:17:22;13.60;99.90
22167;DHT22;11249;52.468;13.776;2022-10-16T06:19:55;13.60;99.90
22167;DHT22;11249;52.468;13.776;2022-10-16T06:22:29;13.70;99.90
22167;DHT22;11249;52.468;13.776;2022-10-16T06:25:02;13.70;99.90
22167;DHT22;11249;52.468;13.776;2022-10-16T06:27:36;13.70;99.90
22167;DHT22;11249;52.468;13.776;2022-10-16T06:30:15;13.70;99.90
22167;DHT22;11249;52.468;13.776;2022-10-16T06:32:42;13.70;99.90
22167;DHT22;11249;52.468;13.776;2022-10-16T06:35:16;13.70;99.90
22167;DHT22;11249;52.468;13.776;2022-10-16T06:37:42;13.70;99.90
22167;DHT22;11249;52.468;13.776;2022-10-16T06:40:15;13.70;99.90
22167;DHT22;11249;52.468;13.776;2022-10-16T06:42:42;13.70;99.90
22167;DHT22;11249;52.468;13.776;2022-10-16T06:45:16;13.80;99.90
22167;DHT22;11249;52.468;13.776;2022-10-16T06:47:42;13.80;99.90
22167;DHT22;11249;52.468;13.776;2022-10-16T06:50:16;13.90;99.90
22167;DHT22;11249;52.468;13.776;2022-10-16T06:52:42;13.90;99.90
22167;DHT22;11249;52.468;13.776;2022-10-16T06:55:09;13.90;99.90
22167;DHT22;11249;52.468;13.776;2022-10-16T06:57:42;13.90;99.90
22167;DHT22;11249;52.468;13.776;2022-10-16T07:00:08;14.00;99.90
22167;DHT22;11249;52.468;13.776;2022-10-16T07:02:42;14.00;99.90
22167;DHT22;11249;52.468;13.776;2022-10-16T07:05:08;14.10;99.90
22167;DHT22;11249;52.468;13.776;2022-10-16T07:07:41;14.10;99.90
22167;DHT22;11249;52.468;13.776;2022-10-16T07:10:08;14.20;99.90
22167;DHT22;11249;52.468;13.776;2022-10-16T07:12:35;14.30;99.90
22167;DHT22;11249;52.468;13.776;2022-10-16T07:15:08;14.40;99.90
22167;DHT22;11249;52.468;13.776;2022-10-16T07:17:42;14.40;99.90
22167;DHT22;11249;52.468;13.776;2022-10-16T07:20:15;14.50;99.90
22167;DHT22;11249;52.468;13.776;2022-10-16T07:22:55;14.50;99.90
22167;DHT22;11249;52.468;13.776;2022-10-16T07:25:21;14.60;99.90
22167;DHT22;11249;52.468;13.776;2022-10-16T07:27:48;14.60;99.90
22167;DHT22;11249;52.468;13.776;2022-10-16T07:30:21;14.70;99.90
22167;DHT22;11249;52.468;13.776;2022-10-16T07:32:54;14.80;99.90
22167;DHT22;11249;52.468;13.776;2022-10-16T07:35:20;14.90;99.90
22167;DHT22;11249;52.468;13.776;2022-10-16T07:37:53;15.00;99.90
22167;DHT22;11249;52.468;13.776;2022-10-16T07:40:21;15.10;99.90
22167;DHT22;11249;52.468;13.776;2022-10-16T07:42:47;15.30;99.90
22167;DHT22;11249;52.468;13.776;2022-10-16T07:45:20;15.40;99.90
22167;DHT22;11249;52.468;13.776;2022-10-16T07:47:47;15.70;99.90
22167;DHT22;11249;52.468;13.776;2022-10-16T07:50:20;15.80;99.90
22167;DHT22;11249;52.468;13.776;2022-10-16T07:52:54;16.00;99.90
22167;DHT22;11249;52.468;13.776;2022-10-16T07:55:26;16.20;99.90
22167;DHT22;11249;52.468;13.776;2022-10-16T07:58:00;16.30;99.90
22167;DHT22;11249;52.468;13.776;2022-10-16T08:00:26;16.50;99.90
22167;DHT22;11249;52.468;13.776;2022-10-16T08:02:53;16.60;99.90
22167;DHT22;11249;52.468;13.776;2022-10-16T08:05:33;16.60;99.90
22167;DHT22;11249;52.468;13.776;2022-10-16T08:08:10;16.60;99.90
22167;DHT22;11249;52.468;13.776;2022-10-16T08:10:37;16.60;99.90
22167;DHT22;11249;52.468;13.776;2022-10-16T08:13:11;16.60;99.90
22167;DHT22;11249;52.468;13.776;2022-10-16T08:15:39;16.60;99.90
22167;DHT22;11249;52.468;13.776;2022-10-16T08:18:05;16.70;99.90
22167;DHT22;11249;52.468;13.776;2022-10-16T08:20:45;16.70;99.90
22167;DHT22;11249;52.468;13.776;2022-10-16T08:23:12;16.70;99.90
22167;DHT22;11249;52.468;13.776;2022-10-16T08:25:46;16.80;99.90
22167;DHT22;11249;52.468;13.776;2022-10-16T08:28:19;16.80;99.90
22167;DHT22;11249;52.468;13.776;2022-10-16T08:30:45;16.90;99.90
22167;DHT22;11249;52.468;13.776;2022-10-16T08:33:18;16.90;99.90
22167;DHT22;11249;52.468;13.776;2022-10-16T08:35:52;16.90;99.90
22167;DHT22;11249;52.468;13.776;2022-10-16T08:38:27;17.00;99.90
22167;DHT22;11249;52.468;13.776;2022-10-16T08:41:02;17.10;99.90
22167;DHT22;11249;52.468;13.776;2022-10-16T08:44:05;17.20;99.90
22167;DHT22;11249;52.468;13.776;2022-10-16T08:46:56;17.20;99.90
22167;DHT22;11249;52.468;13.776;2022-10-16T08:49:34;17.30;99.90
22167;DHT22;11249;52.468;13.776;2022-10-16T08:52:01;17.40;99.90
22167;DHT22;11249;52.468;13.776;2022-10-16T08:54:46;17.40;99.90
22167;DHT22;11249;52.468;13.776;2022-10-16T08:57:21;17.50;99.90
22167;DHT22;11249;52.468;13.776;2022-10-16T09:00:08;17.60;99.90
22167;DHT22;11249;52.468;13.776;2022-10-16T09:02:50;17.60;99.90
22167;DHT22;11249;52.468;13.776;2022-10-16T09:05:41;17.60;99.90
22167;DHT22;11249;52.468;13.776;2022-10-16T09:08:51;17.70;99.90
22167;DHT22;11249;52.468;13.776;2022-10-16T09:14:20;17.60;99.90
22167;DHT22;11249;52.468;13.776;2022-10-16T09:16:56;17.70;99.90
22167;DHT22;11249;52.468;13.776;2022-10-16T09:19:38;17.70;99.90
22167;DHT22;11249;52.468;13.776;2022-10-16T09:22:17;17.70;99.90
22167;DHT22;11249;52.468;13.776;2022-10-16T09:25:10;17.80;99.90
22167;DHT22;11249;52.468;13.776;2022-10-16T09:27:37;17.90;99.90
22167;DHT22;11249;52.468;13.776;2022-10-16T09:30:17;18.00;99.90
22167;DHT22;11249;52.468;13.776;2022-10-16T09:32:45;18.10;99.90
22167;DHT22;11249;52.468;13.776;2022-10-16T09:35:38;18.20;99.90
22167;DHT22;11249;52.468;13.776;2022-10-16T09:38:30;18.30;99.90
22167;DHT22;11249;52.468;13.776;2022-10-16T09:43:46;18.40;99.90
22167;DHT22;11249;52.468;13.776;2022-10-16T09:46:36;18.50;99.90
22167;DHT22;11249;52.468;13.776;2022-10-16T09:49:25;18.40;99.90
22167;DHT22;11249;52.468;13.776;2022-10-16T09:52:10;18.30;99.90
22167;DHT22;11249;52.468;13.776;2022-10-16T09:57:24;18.40;99.90
22167;DHT22;11249;52.468;13.776;2022-10-16T09:59:58;18.40;99.90
22167;DHT22;11249;52.468;13.776;2022-10-16T10:02:35;18.40;99.90
22167;DHT22;11249;52.468;13.776;2022-10-16T10:05:39;18.50;99.90
22167;DHT22;11249;52.468;13.776;2022-10-16T10:08:06;18.60;99.90
22167;DHT22;11249;52.468;13.776;2022-10-16T10:10:42;18.70;99.90
22167;DHT22;11249;52.468;13.776;2022-10-16T10:13:20;18.70;99.90
22167;DHT22;11249;52.468;13.776;2022-10-16T10:15:54;18.70;99.90
22167;DHT22;11249;52.468;13.776;2022-10-16T10:18:27;18.70;99.90
22167;DHT22;11249;52.468;13.776;2022-10-16T10:21:01;18.80;99.90
22167;DHT22;11249;52.468;13.776;2022-10-16T10:23:35;18.90;99.90
22167;DHT22;11249;52.468;13.776;2022-10-16T10:28:51;19.10;99.90
22167;DHT22;11249;52.468;13.776;2022-10-16T10:32:07;19.20;99.90
22167;DHT22;11249;52.468;13.776;2022-10-16T10:34:45;19.40;99.90
22167;DHT22;11249;52.468;13.776;2022-10-16T10:40:12;19.50;99.90
22167;DHT22;11249;52.468;13.776;2022-10-16T10:42:59;19.30;99.90
22167;DHT22;11249;52.468;13.776;2022-10-16T10:45:41;19.20;99.90
22167;DHT22;11249;52.468;13.776;2022-10-16T10:48:39;19.10;99.90
22167;DHT22;11249;52.468;13.776;2022-10-16T10:51:31;19.10;99.90
22167;DHT22;11249;52.468;13.776;2022-10-16T10:54:22;19.20;99.90
22167;DHT22;11249;52.468;13.776;2022-10-16T10:57:02;19.20;99.90
22167;DHT22;11249;52.468;13.776;2022-10-16T11:00:21;19.10;99.90
22167;DHT22;11249;52.468;13.776;2022-10-16T11:03:20;19.00;99.90
22167;DHT22;11249;52.468;13.776;2022-10-16T11:05:56;19.10;99.90
22167;DHT22;11249;52.468;13.776;2022-10-16T11:08:38;19.30;99.90
22167;DHT22;11249;52.468;13.776;2022-10-16T11:11:24;19.40;99.90
22167;DHT22;11249;52.468;13.776;2022-10-16T11:14:06;19.50;99.90
22167;DHT22;11249;52.468;13.776;2022-10-16T11:16:54;19.50;99.90
22167;DHT22;11249;52.468;13.776;2022-10-16T11:22:48;19.50;99.90
22167;DHT22;11249;52.468;13.776;2022-10-16T11:25:31;19.50;99.90
22167;DHT22;11249;52.468;13.776;2022-10-16T11:28:14;19.70;99.90
22167;DHT22;11249;52.468;13.776;2022-10-16T11:33:23;20.40;99.90
22167;DHT22;11249;52.468;13.776;2022-10-16T11:36:09;20.60;99.90
22167;DHT22;11249;52.468;13.776;2022-10-16T11:39:23;20.90;99.90
22167;DHT22;11249;52.468;13.776;2022-10-16T11:41:54;20.80;99.90
22167;DHT22;11249;52.468;13.776;2022-10-16T11:47:44;21.00;99.90
22167;DHT22;11249;52.468;13.776;2022-10-16T11:50:38;21.10;99.90
22167;DHT22;11249;52.468;13.776;2022-10-16T11:53:51;21.20;99.90
22167;DHT22;11249;52.468;13.776;2022-10-16T11:56:27;21.20;99.90
22167;DHT22;11249;52.468;13.776;2022-10-16T11:59:07;21.30;99.90
22167;DHT22;11249;52.468;13.776;2022-10-16T12:01:47;21.50;99.90
22167;DHT22;11249;52.468;13.776;2022-10-16T12:04:43;21.60;99.90
22167;DHT22;11249;52.468;13.776;2022-10-16T12:07:17;21.50;99.90
22167;DHT22;11249;52.468;13.776;2022-10-16T12:09:52;21.30;99.90
22167;DHT22;11249;52.468;13.776;2022-10-16T12:12:27;21.40;99.90
22167;DHT22;11249;52.468;13.776;2022-10-16T12:15:24;21.50;99.90
22167;DHT22;11249;52.468;13.776;2022-10-16T12:18:23;21.30;99.90
22167;DHT22;11249;52.468;13.776;2022-10-16T12:21:04;21.00;99.90
22167;DHT22;11249;52.468;13.776;2022-10-16T12:23:54;20.70;99.90
22167;DHT22;11249;52.468;13.776;2022-10-16T12:26:31;20.70;99.90
22167;DHT22;11249;52.468;13.776;2022-10-16T12:29:22;20.60;99.90
22167;DHT22;11249;52.468;13.776;2022-10-16T12:31:56;20.50;99.90
22167;DHT22;11249;52.468;13.776;2022-10-16T12:34:38;20.40;99.90
22167;DHT22;11249;52.468;13.776;2022-10-16T12:37:18;20.40;99.90
22167;DHT22;11249;52.468;13.776;2022-10-16T12:39:54;20.50;99.90
22167;DHT22;11249;52.468;13.776;2022-10-16T12:45:01;20.60;99.90
22167;DHT22;11249;52.468;13.776;2022-10-16T12:47:48;20.80;99.90
22167;DHT22;11249;52.468;13.776;2022-10-16T12:50:36;21.00;99.90
22167;DHT22;11249;52.468;13.776;2022-10-16T12:53:23;21.10;99.90
22167;DHT22;11249;52.468;13.776;2022-10-16T12:56:03;21.30;99.90
22167;DHT22;11249;52.468;13.776;2022-10-16T12:58:48;21.50;99.90
22167;DHT22;11249;52.468;13.776;2022-10-16T13:01:51;21.60;99.90
22167;DHT22;11249;52.468;13.776;2022-10-16T13:07:45;21.70;99.90
22167;DHT22;11249;52.468;13.776;2022-10-16T13:10:48;21.80;99.90
22167;DHT22;11249;52.468;13.776;2022-10-16T13:13:51;21.90;99.90
22167;DHT22;11249;52.468;13.776;2022-10-16T13:16:36;22.00;99.90
22167;DHT22;11249;52.468;13.776;2022-10-16T13:19:29;22.20;99.90
22167;DHT22;11249;52.468;13.776;2022-10-16T13:22:19;22.30;99.90
22167;DHT22;11249;52.468;13.776;2022-10-16T13:28:07;22.70;99.90
22167;DHT22;11249;52.468;13.776;2022-10-16T13:30:51;22.90;99.90
22167;DHT22;11249;52.468;13.776;2022-10-16T13:33:37;22.80;99.90
22167;DHT22;11249;52.468;13.776;2022-10-16T13:36:06;22.60;99.90
22167;DHT22;11249;52.468;13.776;2022-10-16T13:38:39;22.40;99.90
22167;DHT22;11249;52.468;13.776;2022-10-16T13:41:17;22.50;99.90
22167;DHT22;11249;52.468;13.776;2022-10-16T13:43:52;22.50;99.90
22167;DHT22;11249;52.468;13.776;2022-10-16T13:46:27;22.50;99.90
22167;DHT22;11249;52.468;13.776;2022-10-16T13:49:20;22.50;99.90
22167;DHT22;11249;52.468;13.776;2022-10-16T13:51:57;22.80;99.90
22167;DHT22;11249;52.468;13.776;2022-10-16T13:54:31;23.00;99.90
22167;DHT22;11249;52.468;13.776;2022-10-16T13:57:05;23.00;99.90
22167;DHT22;11249;52.468;13.776;2022-10-16T13:59:53;22.80;99.90
22167;DHT22;11249;52.468;13.776;2022-10-16T14:05:09;22.50;99.90
22167;DHT22;11249;52.468;13.776;2022-10-16T14:07:37;22.50;99.90
22167;DHT22;11249;52.468;13.776;2022-10-16T14:10:27;22.40;99.90
22167;DHT22;11249;52.468;13.776;2022-10-16T14:13:01;22.80;99.90
22167;DHT22;11249;52.468;13.776;2022-10-16T14:15:36;22.80;99.90
22167;DHT22;11249;52.468;13.776;2022-10-16T14:18:03;23.00;99.90
22167;DHT22;11249;52.468;13.776;2022-10-16T14:20:32;23.10;99.90
22167;DHT22;11249;52.468;13.776;2022-10-16T14:23:28;23.20;99.90
22167;DHT22;11249;52.468;13.776;2022-10-16T14:26:16;23.30;99.90
22167;DHT22;11249;52.468;13.776;2022-10-16T14:29:08;23.10;99.90
22167;DHT22;11249;52.468;13.776;2022-10-16T14:31:36;22.90;99.90
22167;DHT22;11249;52.468;13.776;2022-10-16T14:34:31;22.50;99.90
22167;DHT22;11249;52.468;13.776;2022-10-16T14:37:09;22.20;99.90
22167;DHT22;11249;52.468;13.776;2022-10-16T14:39:54;22.00;99.90
22167;DHT22;11249;52.468;13.776;2022-10-16T14:42:23;21.80;99.90
22167;DHT22;11249;52.468;13.776;2022-10-16T14:44:57;21.80;99.90
22167;DHT22;11249;52.468;13.776;2022-10-16T14:47:31;21.70;99.90
22167;DHT22;11249;52.468;13.776;2022-10-16T14:49:58;21.80;99.90
22167;DHT22;11249;52.468;13.776;2022-10-16T14:52:32;22.00;99.90
22167;DHT22;11249;52.468;13.776;2022-10-16T14:54:58;22.10;99.90
22167;DHT22;11249;52.468;13.776;2022-10-16T14:57:27;22.20;99.90
22167;DHT22;11249;52.468;13.776;2022-10-16T15:00:13;22.30;99.90
22167;DHT22;11249;52.468;13.776;2022-10-16T15:02:41;22.40;99.90
22167;DHT22;11249;52.468;13.776;2022-10-16T15:05:18;22.50;99.90
22167;DHT22;11249;52.468;13.776;2022-10-16T15:07:52;22.50;99.90
22167;DHT22;11249;52.468;13.776;2022-10-16T15:10:23;22.50;99.90
22167;DHT22;11249;52.468;13.776;2022-10-16T15:12:50;22.50;99.90
22167;DHT22;11249;52.468;13.776;2022-10-16T15:17:50;22.30;99.90
22167;DHT22;11249;52.468;13.776;2022-10-16T15:20:34;22.20;99.90
22167;DHT22;11249;52.468;13.776;2022-10-16T15:23:18;22.00;99.90
22167;DHT22;11249;52.468;13.776;2022-10-16T15:25:57;21.90;99.90
22167;DHT22;11249;52.468;13.776;2022-10-16T15:28:25;21.80;99.90
22167;DHT22;11249;52.468;13.776;2022-10-16T15:30:59;21.50;99.90
22167;DHT22;11249;52.468;13.776;2022-10-16T15:33:32;21.50;99.90
22167;DHT22;11249;52.468;13.776;2022-10-16T15:36:08;21.40;99.90
22167;DHT22;11249;52.468;13.776;2022-10-16T15:38:35;21.30;99.90
22167;DHT22;11249;52.468;13.776;2022-10-16T15:41:08;21.20;99.90
22167;DHT22;11249;52.468;13.776;2022-10-16T15:43:34;21.00;99.90
22167;DHT22;11249;52.468;13.776;2022-10-16T15:46:02;20.80;99.90
22167;DHT22;11249;52.468;13.776;2022-10-16T15:48:36;20.70;99.90
22167;DHT22;11249;52.468;13.776;2022-10-16T15:51:07;20.40;99.90
22167;DHT22;11249;52.468;13.776;2022-10-16T15:53:41;20.10;99.90
22167;DHT22;11249;52.468;13.776;2022-10-16T15:56:09;19.80;99.90
22167;DHT22;11249;52.468;13.776;2022-10-16T15:58:44;19.60;99.90
22167;DHT22;11249;52.468;13.776;2022-10-16T16:01:11;19.30;99.90
22167;DHT22;11249;52.468;13.776;2022-10-16T16:03:44;19.10;99.90
22167;DHT22;11249;52.468;13.776;2022-10-16T16:06:17;18.80;99.90
22167;DHT22;11249;52.468;13.776;2022-10-16T16:08:43;18.50;99.90
22167;DHT22;11249;52.468;13.776;2022-10-16T16:11:12;18.30;99.90
22167;DHT22;11249;52.468;13.776;2022-10-16T16:13:46;18.00;99.90
22167;DHT22;11249;52.468;13.776;2022-10-16T16:16:19;17.80;99.90
22167;DHT22;11249;52.468;13.776;2022-10-16T16:18:46;17.60;99.90
22167;DHT22;11249;52.468;13.776;2022-10-16T16:21:15;17.40;99.90
22167;DHT22;11249;52.468;13.776;2022-10-16T16:23:48;17.20;99.90
22167;DHT22;11249;52.468;13.776;2022-10-16T16:26:35;17.00;99.90
22167;DHT22;11249;52.468;13.776;2022-10-16T16:29:16;16.80;99.90
22167;DHT22;11249;52.468;13.776;2022-10-16T16:31:43;16.60;99.90
22167;DHT22;11249;52.468;13.776;2022-10-16T16:34:24;16.40;99.90
22167;DHT22;11249;52.468;13.776;2022-10-16T16:36:58;16.20;99.90
22167;DHT22;11249;52.468;13.776;2022-10-16T16:39:24;16.10;99.90
22167;DHT22;11249;52.468;13.776;2022-10-16T16:41:58;15.90;99.90
22167;DHT22;11249;52.468;13.776;2022-10-16T16:44:36;15.80;99.90
22167;DHT22;11249;52.468;13.776;2022-10-16T16:47:10;15.60;99.90
22167;DHT22;11249;52.468;13.776;2022-10-16T16:49:36;15.50;99.90
22167;DHT22;11249;52.468;13.776;2022-10-16T16:52:03;15.40;99.90